Terminal Aerodrome Forecast
Issued by NWS St Louis, MO

Home | Current Version | Previous Version | Text Only | Print | Product List | Glossary On
Versions: 1 2 3 4 5 6 7 8 9 10 11 12 13 14 15 16 17 18 19 20 21 22 23 24 25 26 27 28 29 30 31 32
367
FTUS43 KLSX 230858 AAA
TAFSTL
TAF AMD
KSTL 230858Z 2309/2412 05010KT P6SM -SHRA OVC045
     FM231300 04012G18KT P6SM VCSH SCT025 OVC050
     FM232100 04012G18KT P6SM BKN025 OVC040
     FM240800 36006KT P6SM OVC025=

USA.gov is the U.S. government's official web portal to all federal, state and local government web resources and services.